Time,TemperatureF,DewpointF,PressureIn,WindDirection,WindDirectionDegrees,WindSpeedMPH,WindSpeedGustMPH,Humidity,HourlyPrecipIn,Conditions,Clouds,dailyrainin,SolarRadiationWatts/m^2,SoftwareType,DateUTC
2013-07-24 00:01:00,73.0,73.0,-100.00,SW,232,3.0,6.0,100,0.00,,,0.08,0.000000,,2013-07-24 04:01:00,
2013-07-24 00:11:00,73.0,73.0,-100.00,SW,232,3.0,6.0,100,0.00,,,0.08,0.000000,,2013-07-24 04:11:00,
2013-07-24 00:22:00,73.0,73.0,-100.00,SW,232,3.0,6.0,100,0.00,,,0.08,0.000000,,2013-07-24 04:22:00,
2013-07-24 01:02:00,73.0,73.0,-100.00,SW,232,4.0,5.0,100,0.00,,,0.08,0.000000,,2013-07-24 05:02:00,
2013-07-24 01:11:00,73.0,73.0,-100.00,SW,232,4.0,5.0,100,0.00,,,0.08,0.000000,,2013-07-24 05:11:00,
2013-07-24 01:22:00,73.0,73.0,-100.00,SW,232,4.0,5.0,100,0.00,,,0.08,0.000000,,2013-07-24 05:22:00,
2013-07-24 01:52:00,72.0,72.0,-100.00,WSW,247,4.0,7.0,100,0.00,,,0.08,0.000000,,2013-07-24 05:52:00,
2013-07-24 02:01:00,72.0,72.0,-100.00,WSW,247,4.0,7.0,100,0.00,,,0.08,0.000000,,2013-07-24 06:01:00,
2013-07-24 02:12:00,72.0,72.0,-100.00,WSW,247,4.0,7.0,100,0.00,,,0.08,0.000000,,2013-07-24 06:12:00,
2013-07-24 02:24:00,72.0,72.0,-100.00,WSW,247,4.0,7.0,100,0.00,,,0.08,0.000000,,2013-07-24 06:24:00,
2013-07-24 02:53:00,72.0,72.0,-100.00,SW,235,3.0,7.0,100,0.00,,,0.08,0.000000,,2013-07-24 06:53:00,
2013-07-24 03:02:00,72.0,72.0,-100.00,SW,235,3.0,7.0,100,0.00,,,0.08,0.000000,,2013-07-24 07:02:00,
2013-07-24 03:12:00,72.0,72.0,-100.00,SW,235,3.0,7.0,100,0.00,,,0.08,0.000000,,2013-07-24 07:12:00,
2013-07-24 03:22:00,72.0,72.0,-100.00,SW,235,3.0,7.0,100,0.00,,,0.08,0.000000,,2013-07-24 07:22:00,
2013-07-24 03:53:00,71.0,71.0,-100.00,WSW,238,3.0,7.0,100,0.00,,,0.08,0.000000,,2013-07-24 07:53:00,
2013-07-24 04:02:00,71.0,71.0,-100.00,WSW,238,3.0,7.0,100,0.00,,,0.08,0.000000,,2013-07-24 08:02:00,
2013-07-24 04:12:00,71.0,71.0,-100.00,WSW,238,3.0,7.0,100,0.00,,,0.08,0.000000,,2013-07-24 08:12:00,
2013-07-24 04:22:00,71.0,71.0,-100.00,WSW,238,3.0,7.0,100,0.00,,,0.08,0.000000,,2013-07-24 08:22:00,
2013-07-24 04:52:00,70.0,70.0,-100.00,WSW,250,4.0,6.0,100,0.00,,,0.08,0.000000,,2013-07-24 08:52:00,
2013-07-24 05:02:00,70.0,70.0,-100.00,WSW,250,4.0,6.0,100,0.00,,,0.08,0.000000,,2013-07-24 09:02:00,
2013-07-24 05:12:00,70.0,70.0,-100.00,WSW,250,4.0,6.0,100,0.00,,,0.08,0.000000,,2013-07-24 09:12:00,
2013-07-24 05:22:00,70.0,70.0,-100.00,WSW,250,4.0,6.0,100,0.00,,,0.08,0.000000,,2013-07-24 09:22:00,
2013-07-24 05:53:00,70.0,70.0,-100.00,SW,236,3.0,6.0,100,0.00,,,0.07,0.000000,,2013-07-24 09:53:00,
2013-07-24 06:02:00,70.0,70.0,-100.00,SW,236,3.0,6.0,100,0.00,,,0.07,0.000000,,2013-07-24 10:02:00,
2013-07-24 06:12:00,70.0,70.0,-100.00,SW,236,3.0,6.0,100,0.00,,,0.07,0.000000,,2013-07-24 10:12:00,
2013-07-24 06:22:00,70.0,70.0,-100.00,SW,236,3.0,6.0,100,0.00,,,0.07,0.000000,,2013-07-24 10:22:00,
2013-07-24 06:53:00,71.0,71.0,-100.00,WSW,242,3.0,4.0,100,0.00,,,0.07,7.000000,,2013-07-24 10:53:00,
2013-07-24 07:02:00,71.0,71.0,-100.00,WSW,242,3.0,4.0,100,0.00,,,0.07,7.000000,,2013-07-24 11:02:00,
2013-07-24 07:12:00,71.0,71.0,-100.00,WSW,242,3.0,4.0,100,0.00,,,0.07,7.000000,,2013-07-24 11:12:00,
2013-07-24 07:22:00,71.0,71.0,-100.00,WSW,242,3.0,4.0,100,0.00,,,0.07,7.000000,,2013-07-24 11:22:00,
2013-07-24 08:52:00,81.0,74.0,-100.00,West,274,7.0,11.0,80,0.00,,,0.07,293.000000,,2013-07-24 12:52:00,
2013-07-24 09:02:00,81.0,74.0,-100.00,West,274,7.0,11.0,80,0.00,,,0.07,293.000000,,2013-07-24 13:02:00,
2013-07-24 09:12:00,81.0,74.0,-100.00,West,274,7.0,11.0,80,0.00,,,0.07,293.000000,,2013-07-24 13:12:00,
2013-07-24 09:22:00,81.0,74.0,-100.00,West,274,7.0,11.0,80,0.00,,,0.07,293.000000,,2013-07-24 13:22:00,
2013-07-24 09:53:00,82.0,74.0,-100.00,West,278,5.0,10.0,78,0.00,,,0.07,388.000000,,2013-07-24 13:53:00,
2013-07-24 10:02:00,82.0,74.0,-100.00,West,278,5.0,10.0,78,0.00,,,0.07,388.000000,,2013-07-24 14:02:00,
2013-07-24 10:12:00,82.0,74.0,-100.00,West,278,5.0,10.0,78,0.00,,,0.07,388.000000,,2013-07-24 14:12:00,
2013-07-24 10:22:00,82.0,74.0,-100.00,West,278,5.0,10.0,78,0.00,,,0.07,388.000000,,2013-07-24 14:22:00,
2013-07-24 10:55:00,85.0,75.0,-100.00,WNW,300,5.0,10.0,71,0.00,,,0.07,525.000000,,2013-07-24 14:55:00,
2013-07-24 11:03:00,85.0,75.0,-100.00,WNW,300,5.0,10.0,71,0.00,,,0.07,525.000000,,2013-07-24 15:03:00,
2013-07-24 11:12:00,85.0,75.0,-100.00,WNW,300,5.0,10.0,71,0.00,,,0.07,525.000000,,2013-07-24 15:12:00,
2013-07-24 11:22:00,85.0,75.0,-100.00,WNW,300,5.0,10.0,71,0.00,,,0.07,525.000000,,2013-07-24 15:22:00,
2013-07-24 11:53:00,84.0,72.0,-100.00,NNW,348,6.0,12.0,68,0.00,,,0.07,768.000000,,2013-07-24 15:53:00,
2013-07-24 12:02:00,84.0,72.0,-100.00,NNW,348,6.0,12.0,68,0.00,,,0.07,768.000000,,2013-07-24 16:02:00,
2013-07-24 12:12:00,84.0,72.0,-100.00,NNW,348,6.0,12.0,68,0.00,,,0.07,768.000000,,2013-07-24 16:12:00,
2013-07-24 12:23:00,84.0,72.0,-100.00,NNW,348,6.0,12.0,68,0.00,,,0.07,768.000000,,2013-07-24 16:23:00,
2013-07-24 12:53:00,84.0,74.0,-100.00,NNW,347,6.0,13.0,71,0.00,,,-99.99,854.000000,,2013-07-24 16:53:00,
2013-07-24 13:03:00,84.0,74.0,-100.00,NNW,347,6.0,13.0,71,0.00,,,-99.99,854.000000,,2013-07-24 17:03:00,
2013-07-24 13:12:00,84.0,74.0,-100.00,NNW,347,6.0,13.0,71,0.00,,,-99.99,854.000000,,2013-07-24 17:12:00,
2013-07-24 13:22:00,84.0,74.0,-100.00,NNW,347,6.0,13.0,71,0.00,,,-99.99,854.000000,,2013-07-24 17:22:00,
2013-07-24 13:53:00,85.0,75.0,-100.00,East,96,3.0,11.0,71,0.00,,,0.06,762.000000,,2013-07-24 17:53:00,
2013-07-24 14:03:00,85.0,75.0,-100.00,East,96,3.0,11.0,71,0.00,,,0.06,762.000000,,2013-07-24 18:03:00,
2013-07-24 14:12:00,85.0,75.0,-100.00,East,96,3.0,11.0,71,0.00,,,0.06,762.000000,,2013-07-24 18:12:00,
2013-07-24 14:22:00,85.0,75.0,-100.00,East,96,3.0,11.0,71,0.00,,,0.06,762.000000,,2013-07-24 18:22:00,
2013-07-24 14:52:00,83.0,76.0,-100.00,NE,36,4.0,11.0,79,0.00,,,0.00,535.000000,,2013-07-24 18:52:00,
2013-07-24 15:03:00,83.0,76.0,-100.00,NE,36,4.0,11.0,79,0.00,,,0.00,535.000000,,2013-07-24 19:03:00,
2013-07-24 15:12:00,83.0,76.0,-100.00,NE,36,4.0,11.0,79,0.00,,,0.00,535.000000,,2013-07-24 19:12:00,
2013-07-24 15:22:00,83.0,76.0,-100.00,NE,36,4.0,11.0,79,0.00,,,0.00,535.000000,,2013-07-24 19:22:00,
2013-07-24 15:53:00,83.0,75.0,-100.00,North,353,12.0,19.0,78,0.00,,,0.00,674.000000,,2013-07-24 19:53:00,
2013-07-24 16:02:00,83.0,75.0,-100.00,North,353,12.0,19.0,78,0.00,,,0.00,674.000000,,2013-07-24 20:02:00,
2013-07-24 16:13:00,83.0,75.0,-100.00,North,353,12.0,19.0,78,0.00,,,0.00,674.000000,,2013-07-24 20:13:00,
2013-07-24 16:23:00,83.0,75.0,-100.00,North,353,12.0,19.0,78,0.00,,,0.00,674.000000,,2013-07-24 20:23:00,
2013-07-24 16:53:00,81.0,75.0,-100.00,NNW,347,11.0,20.0,83,0.00,,,0.00,491.000000,,2013-07-24 20:53:00,
2013-07-24 17:03:00,81.0,75.0,-100.00,NNW,347,11.0,20.0,83,0.00,,,0.00,491.000000,,2013-07-24 21:03:00,
2013-07-24 17:12:00,81.0,75.0,-100.00,NNW,347,11.0,20.0,83,0.00,,,0.00,491.000000,,2013-07-24 21:12:00,
2013-07-24 17:22:00,81.0,75.0,-100.00,NNW,347,11.0,20.0,83,0.00,,,0.00,491.000000,,2013-07-24 21:22:00,
2013-07-24 17:53:00,81.0,73.0,-100.00,North,351,11.0,23.0,77,0.00,,,0.00,401.000000,,2013-07-24 21:53:00,
2013-07-24 18:02:00,81.0,73.0,-100.00,North,351,11.0,23.0,77,0.00,,,0.00,401.000000,,2013-07-24 22:02:00,
2013-07-24 18:12:00,81.0,73.0,-100.00,North,351,11.0,23.0,77,0.00,,,0.00,401.000000,,2013-07-24 22:12:00,
2013-07-24 18:22:00,81.0,73.0,-100.00,North,351,11.0,23.0,77,0.00,,,0.00,401.000000,,2013-07-24 22:22:00,
2013-07-24 18:53:00,81.0,73.0,-100.00,North,352,10.0,17.0,76,0.00,,,0.00,326.000000,,2013-07-24 22:53:00,
2013-07-24 19:02:00,81.0,73.0,-100.00,North,352,10.0,17.0,76,0.00,,,0.00,326.000000,,2013-07-24 23:02:00,
2013-07-24 19:12:00,81.0,73.0,-100.00,North,352,10.0,17.0,76,0.00,,,0.00,326.000000,,2013-07-24 23:12:00,
2013-07-24 19:22:00,81.0,73.0,-100.00,North,352,10.0,17.0,76,0.00,,,0.00,326.000000,,2013-07-24 23:22:00,
2013-07-24 19:52:00,80.0,74.0,-100.00,NNW,339,7.0,16.0,83,0.00,,,0.00,218.000000,,2013-07-24 23:52:00,
2013-07-24 20:02:00,80.0,74.0,-100.00,NNW,339,7.0,16.0,83,0.00,,,0.00,218.000000,,2013-07-25 00:02:00,
2013-07-24 20:12:00,80.0,74.0,-100.00,NNW,339,7.0,16.0,83,0.00,,,0.00,218.000000,,2013-07-25 00:12:00,
2013-07-24 20:22:00,80.0,74.0,-100.00,NNW,339,7.0,16.0,83,0.00,,,0.00,218.000000,,2013-07-25 00:22:00,
2013-07-24 20:53:00,78.0,71.0,-100.00,NNW,343,9.0,17.0,78,0.00,,,0.00,28.000000,,2013-07-25 00:53:00,
2013-07-24 21:03:00,78.0,71.0,-100.00,NNW,343,9.0,17.0,78,0.00,,,0.00,28.000000,,2013-07-25 01:03:00,
2013-07-24 21:12:00,78.0,71.0,-100.00,NNW,343,9.0,17.0,78,0.00,,,0.00,28.000000,,2013-07-25 01:12:00,
2013-07-24 21:22:00,78.0,71.0,-100.00,NNW,343,9.0,17.0,78,0.00,,,0.00,28.000000,,2013-07-25 01:22:00,
2013-07-24 21:53:00,78.0,72.0,-100.00,NW,316,4.0,13.0,83,0.00,,,0.00,0.000000,,2013-07-25 01:53:00,
2013-07-24 22:02:00,78.0,72.0,-100.00,NW,316,4.0,13.0,83,0.00,,,0.00,0.000000,,2013-07-25 02:02:00,
2013-07-24 22:12:00,78.0,72.0,-100.00,NW,316,4.0,13.0,83,0.00,,,0.00,0.000000,,2013-07-25 02:12:00,
2013-07-24 22:22:00,78.0,72.0,-100.00,NW,316,4.0,13.0,83,0.00,,,0.00,0.000000,,2013-07-25 02:22:00,
2013-07-24 22:53:00,77.0,70.0,-100.00,NW,314,2.0,12.0,80,0.00,,,0.00,0.000000,,2013-07-25 02:53:00,
2013-07-24 23:02:00,77.0,70.0,-100.00,NW,314,2.0,12.0,80,0.00,,,0.00,0.000000,,2013-07-25 03:02:00,
2013-07-24 23:16:00,77.0,70.0,-100.00,NW,314,2.0,12.0,80,0.00,,,0.00,0.000000,,2013-07-25 03:16:00,
2013-07-24 23:24:00,77.0,70.0,-100.00,NW,314,2.0,12.0,80,0.00,,,0.00,0.000000,,2013-07-25 03:24:00,
2013-07-24 23:53:00,77.0,72.0,-100.00,North,351,3.0,11.0,84,0.00,,,0.00,0.000000,,2013-07-25 03:53:00,